Benet Lake, Wisconsin
Current Conditions -  °F | °C
As of 3:53 AM on Saturday 25 Oct 2014 (Local Time) from KENW Reporting Station
Haze Haze  
Wind Chill: 56°   Ceiling: 900
Heat Index: 56°   Visibility: 5mi
Dew Point: 54°   Wind: 8mph
Humidity: 93%   Direction: 270°W
Pressure: 29.88"   Gusts: NA
Location:  42.54°N, 88.02°W
Report Text: KENW 250853Z AUTO 27007KT 5SM BR BKN009 13/12 A2988 RMK AO2 SLP118 T01330122 55002
Loading
Personal Weather Stations






























Interactive Weather Map
Tropical Storm Tracking
New forecast layout! Learn more

10-Day Weather Forecast

Advertisements
Track Severe Weather on mobile